sensor_id;sensor_type;location;lat;lon;timestamp;temperature;humidity
14210;DHT22;7188;56.070;12.698;2023-05-02T00:00:25;10.90;99.90
14210;DHT22;7188;56.070;12.698;2023-05-02T00:02:51;10.90;1.00
14210;DHT22;7188;56.070;12.698;2023-05-02T00:05:17;10.90;1.00
14210;DHT22;7188;56.070;12.698;2023-05-02T00:07:42;10.90;1.00
14210;DHT22;7188;56.070;12.698;2023-05-02T00:10:08;10.90;1.00
14210;DHT22;7188;56.070;12.698;2023-05-02T00:12:34;10.90;1.00
14210;DHT22;7188;56.070;12.698;2023-05-02T00:15:00;10.90;1.00
14210;DHT22;7188;56.070;12.698;2023-05-02T00:17:41;10.90;1.00
14210;DHT22;7188;56.070;12.698;2023-05-02T00:20:11;10.80;99.90
14210;DHT22;7188;56.070;12.698;2023-05-02T00:22:37;10.80;94.80
14210;DHT22;7188;56.070;12.698;2023-05-02T00:25:03;10.80;99.90
14210;DHT22;7188;56.070;12.698;2023-05-02T00:27:29;10.80;99.90
14210;DHT22;7188;56.070;12.698;2023-05-02T00:29:56;10.70;99.90
14210;DHT22;7188;56.070;12.698;2023-05-02T00:32:23;10.70;99.90
14210;DHT22;7188;56.070;12.698;2023-05-02T00:34:49;10.60;1.00
14210;DHT22;7188;56.070;12.698;2023-05-02T00:37:15;10.60;1.00
14210;DHT22;7188;56.070;12.698;2023-05-02T00:39:40;10.60;1.00
14210;DHT22;7188;56.070;12.698;2023-05-02T00:42:28;10.50;1.00
14210;DHT22;7188;56.070;12.698;2023-05-02T00:44:56;10.50;44.20
14210;DHT22;7188;56.070;12.698;2023-05-02T00:47:22;10.40;99.90
14210;DHT22;7188;56.070;12.698;2023-05-02T00:49:49;10.40;1.00
14210;DHT22;7188;56.070;12.698;2023-05-02T00:52:14;10.00;1.00
14210;DHT22;7188;56.070;12.698;2023-05-02T00:54:40;9.80;1.00
14210;DHT22;7188;56.070;12.698;2023-05-02T00:57:06;9.50;1.00
14210;DHT22;7188;56.070;12.698;2023-05-02T00:59:33;9.30;1.00
14210;DHT22;7188;56.070;12.698;2023-05-02T01:05:14;9.20;99.90
14210;DHT22;7188;56.070;12.698;2023-05-02T01:10:56;9.00;1.00
14210;DHT22;7188;56.070;12.698;2023-05-02T01:13:27;8.90;1.00
14210;DHT22;7188;56.070;12.698;2023-05-02T01:15:55;8.80;1.00
14210;DHT22;7188;56.070;12.698;2023-05-02T01:18:24;8.80;99.90
14210;DHT22;7188;56.070;12.698;2023-05-02T01:21:00;8.70;1.00
14210;DHT22;7188;56.070;12.698;2023-05-02T01:24:39;8.60;99.90
14210;DHT22;7188;56.070;12.698;2023-05-02T01:26:55;8.60;99.90
14210;DHT22;7188;56.070;12.698;2023-05-02T01:29:24;8.50;99.90
14210;DHT22;7188;56.070;12.698;2023-05-02T01:31:53;8.40;1.00
14210;DHT22;7188;56.070;12.698;2023-05-02T01:34:20;8.40;1.00
14210;DHT22;7188;56.070;12.698;2023-05-02T01:36:49;8.30;99.90
14210;DHT22;7188;56.070;12.698;2023-05-02T01:39:19;8.20;1.00
14210;DHT22;7188;56.070;12.698;2023-05-02T01:41:48;8.10;1.00
14210;DHT22;7188;56.070;12.698;2023-05-02T01:44:15;8.00;1.00
14210;DHT22;7188;56.070;12.698;2023-05-02T01:46:42;8.00;1.00
14210;DHT22;7188;56.070;12.698;2023-05-02T01:49:08;8.00;1.00
14210;DHT22;7188;56.070;12.698;2023-05-02T01:51:39;8.00;99.90
14210;DHT22;7188;56.070;12.698;2023-05-02T01:54:07;8.00;99.90
14210;DHT22;7188;56.070;12.698;2023-05-02T01:56:35;8.00;1.00
14210;DHT22;7188;56.070;12.698;2023-05-02T01:59:05;8.00;45.10
14210;DHT22;7188;56.070;12.698;2023-05-02T02:01:35;8.00;1.00
14210;DHT22;7188;56.070;12.698;2023-05-02T02:04:03;8.00;1.00
14210;DHT22;7188;56.070;12.698;2023-05-02T02:06:30;7.90;1.00
14210;DHT22;7188;56.070;12.698;2023-05-02T02:08:56;7.70;10.90
14210;DHT22;7188;56.070;12.698;2023-05-02T02:11:48;7.60;1.00
14210;DHT22;7188;56.070;12.698;2023-05-02T02:14:21;7.60;1.00
14210;DHT22;7188;56.070;12.698;2023-05-02T02:16:50;7.60;99.90
14210;DHT22;7188;56.070;12.698;2023-05-02T02:19:18;7.60;99.90
14210;DHT22;7188;56.070;12.698;2023-05-02T02:21:45;7.50;99.90
14210;DHT22;7188;56.070;12.698;2023-05-02T02:24:12;7.50;99.90
14210;DHT22;7188;56.070;12.698;2023-05-02T02:26:38;7.40;99.90
14210;DHT22;7188;56.070;12.698;2023-05-02T02:29:04;7.40;1.00
14210;DHT22;7188;56.070;12.698;2023-05-02T02:31:34;7.40;99.90
14210;DHT22;7188;56.070;12.698;2023-05-02T02:34:01;7.30;99.90
14210;DHT22;7188;56.070;12.698;2023-05-02T02:36:48;7.30;99.90
14210;DHT22;7188;56.070;12.698;2023-05-02T02:39:34;7.30;1.00
14210;DHT22;7188;56.070;12.698;2023-05-02T02:42:17;7.30;99.90
14210;DHT22;7188;56.070;12.698;2023-05-02T02:45:33;7.30;99.90
14210;DHT22;7188;56.070;12.698;2023-05-02T02:47:49;7.40;1.00
14210;DHT22;7188;56.070;12.698;2023-05-02T02:50:29;7.40;1.00
14210;DHT22;7188;56.070;12.698;2023-05-02T02:53:15;7.50;1.00
14210;DHT22;7188;56.070;12.698;2023-05-02T02:56:01;7.50;99.90
14210;DHT22;7188;56.070;12.698;2023-05-02T02:58:54;7.50;1.00
14210;DHT22;7188;56.070;12.698;2023-05-02T03:01:23;7.40;50.60
14210;DHT22;7188;56.070;12.698;2023-05-02T03:03:51;7.40;1.00
14210;DHT22;7188;56.070;12.698;2023-05-02T03:06:18;7.40;52.20
14210;DHT22;7188;56.070;12.698;2023-05-02T03:08:44;7.40;99.90
14210;DHT22;7188;56.070;12.698;2023-05-02T03:11:09;7.30;1.00
14210;DHT22;7188;56.070;12.698;2023-05-02T03:13:35;7.30;1.00
14210;DHT22;7188;56.070;12.698;2023-05-02T03:16:31;7.40;1.00
14210;DHT22;7188;56.070;12.698;2023-05-02T03:18:58;7.40;1.00
14210;DHT22;7188;56.070;12.698;2023-05-02T03:21:23;7.40;24.90
14210;DHT22;7188;56.070;12.698;2023-05-02T03:23:49;7.50;57.10
14210;DHT22;7188;56.070;12.698;2023-05-02T03:26:15;7.50;94.80
14210;DHT22;7188;56.070;12.698;2023-05-02T03:28:41;7.50;99.90
14210;DHT22;7188;56.070;12.698;2023-05-02T03:31:07;7.50;95.60
14210;DHT22;7188;56.070;12.698;2023-05-02T03:33:32;7.50;93.90
14210;DHT22;7188;56.070;12.698;2023-05-02T03:35:58;7.40;40.60
14210;DHT22;7188;56.070;12.698;2023-05-02T03:38:24;7.40;14.90
14210;DHT22;7188;56.070;12.698;2023-05-02T03:40:49;7.50;23.80
14210;DHT22;7188;56.070;12.698;2023-05-02T03:43:15;7.50;27.80
14210;DHT22;7188;56.070;12.698;2023-05-02T03:45:40;7.50;43.00
14210;DHT22;7188;56.070;12.698;2023-05-02T03:48:06;7.50;84.90
14210;DHT22;7188;56.070;12.698;2023-05-02T03:50:32;7.50;99.90
14210;DHT22;7188;56.070;12.698;2023-05-02T03:52:57;7.60;99.90
14210;DHT22;7188;56.070;12.698;2023-05-02T03:55:23;7.60;99.90
14210;DHT22;7188;56.070;12.698;2023-05-02T03:57:49;7.50;1.00
14210;DHT22;7188;56.070;12.698;2023-05-02T04:00:14;7.50;99.90
14210;DHT22;7188;56.070;12.698;2023-05-02T04:02:40;7.40;1.00
14210;DHT22;7188;56.070;12.698;2023-05-02T04:05:06;7.40;99.90
14210;DHT22;7188;56.070;12.698;2023-05-02T04:07:33;7.30;99.90
14210;DHT22;7188;56.070;12.698;2023-05-02T04:09:59;7.30;1.00
14210;DHT22;7188;56.070;12.698;2023-05-02T04:12:25;7.30;99.90
14210;DHT22;7188;56.070;12.698;2023-05-02T04:14:50;7.30;1.00
14210;DHT22;7188;56.070;12.698;2023-05-02T04:17:16;7.20;1.00
14210;DHT22;7188;56.070;12.698;2023-05-02T04:19:42;7.30;1.00
14210;DHT22;7188;56.070;12.698;2023-05-02T04:22:07;7.20;99.90
14210;DHT22;7188;56.070;12.698;2023-05-02T04:24:33;7.20;99.90
14210;DHT22;7188;56.070;12.698;2023-05-02T04:26:58;7.20;99.90
14210;DHT22;7188;56.070;12.698;2023-05-02T04:29:24;7.20;99.90
14210;DHT22;7188;56.070;12.698;2023-05-02T04:31:50;7.20;1.00
14210;DHT22;7188;56.070;12.698;2023-05-02T04:34:16;7.20;1.00
14210;DHT22;7188;56.070;12.698;2023-05-02T04:36:44;7.20;1.00
14210;DHT22;7188;56.070;12.698;2023-05-02T04:39:10;7.20;1.00
14210;DHT22;7188;56.070;12.698;2023-05-02T04:41:35;7.20;99.90
14210;DHT22;7188;56.070;12.698;2023-05-02T04:44:01;7.20;99.90
14210;DHT22;7188;56.070;12.698;2023-05-02T04:46:27;7.20;99.90
14210;DHT22;7188;56.070;12.698;2023-05-02T04:48:52;7.20;99.90
14210;DHT22;7188;56.070;12.698;2023-05-02T04:51:18;7.20;30.60
14210;DHT22;7188;56.070;12.698;2023-05-02T04:53:44;7.30;1.00
14210;DHT22;7188;56.070;12.698;2023-05-02T04:56:09;7.40;1.00
14210;DHT22;7188;56.070;12.698;2023-05-02T04:58:35;7.40;1.00
14210;DHT22;7188;56.070;12.698;2023-05-02T05:01:01;7.40;1.00
14210;DHT22;7188;56.070;12.698;2023-05-02T05:03:27;7.40;1.00
14210;DHT22;7188;56.070;12.698;2023-05-02T05:09:11;7.60;1.00
14210;DHT22;7188;56.070;12.698;2023-05-02T05:11:37;7.70;1.00
14210;DHT22;7188;56.070;12.698;2023-05-02T05:14:03;7.70;1.00
14210;DHT22;7188;56.070;12.698;2023-05-02T05:16:29;7.80;1.00
14210;DHT22;7188;56.070;12.698;2023-05-02T05:18:55;7.90;1.00
14210;DHT22;7188;56.070;12.698;2023-05-02T05:21:20;7.90;1.00
14210;DHT22;7188;56.070;12.698;2023-05-02T05:23:46;8.00;99.90
14210;DHT22;7188;56.070;12.698;2023-05-02T05:26:14;7.90;99.90
14210;DHT22;7188;56.070;12.698;2023-05-02T05:28:40;7.80;99.90
14210;DHT22;7188;56.070;12.698;2023-05-02T05:31:07;7.70;99.90
14210;DHT22;7188;56.070;12.698;2023-05-02T05:33:33;7.60;99.90
14210;DHT22;7188;56.070;12.698;2023-05-02T05:36:06;7.60;99.90
14210;DHT22;7188;56.070;12.698;2023-05-02T05:38:33;7.70;99.90
14210;DHT22;7188;56.070;12.698;2023-05-02T05:40:59;7.80;99.90
14210;DHT22;7188;56.070;12.698;2023-05-02T05:43:26;7.80;99.90
14210;DHT22;7188;56.070;12.698;2023-05-02T05:45:52;7.70;99.90
14210;DHT22;7188;56.070;12.698;2023-05-02T05:48:18;7.80;99.90
14210;DHT22;7188;56.070;12.698;2023-05-02T05:50:44;7.90;99.90
14210;DHT22;7188;56.070;12.698;2023-05-02T05:53:09;7.90;99.90
14210;DHT22;7188;56.070;12.698;2023-05-02T05:55:35;8.10;99.90
14210;DHT22;7188;56.070;12.698;2023-05-02T05:58:02;8.10;99.90
14210;DHT22;7188;56.070;12.698;2023-05-02T06:00:28;8.00;99.90
14210;DHT22;7188;56.070;12.698;2023-05-02T06:02:53;8.00;99.90
14210;DHT22;7188;56.070;12.698;2023-05-02T06:05:19;8.00;99.90
14210;DHT22;7188;56.070;12.698;2023-05-02T06:07:45;8.10;94.20
14210;DHT22;7188;56.070;12.698;2023-05-02T06:10:10;8.00;30.30
14210;DHT22;7188;56.070;12.698;2023-05-02T06:12:36;7.90;23.20
14210;DHT22;7188;56.070;12.698;2023-05-02T06:15:08;7.90;9.70
14210;DHT22;7188;56.070;12.698;2023-05-02T06:17:34;7.90;1.00
14210;DHT22;7188;56.070;12.698;2023-05-02T06:19:59;7.90;1.00
14210;DHT22;7188;56.070;12.698;2023-05-02T06:22:25;8.00;10.50
14210;DHT22;7188;56.070;12.698;2023-05-02T06:24:51;8.00;31.90
14210;DHT22;7188;56.070;12.698;2023-05-02T06:27:16;8.20;50.00
14210;DHT22;7188;56.070;12.698;2023-05-02T06:29:42;8.30;1.00
14210;DHT22;7188;56.070;12.698;2023-05-02T06:32:07;8.30;1.00
14210;DHT22;7188;56.070;12.698;2023-05-02T06:34:34;8.20;1.00
14210;DHT22;7188;56.070;12.698;2023-05-02T06:37:00;8.20;13.90
14210;DHT22;7188;56.070;12.698;2023-05-02T06:39:26;8.20;1.00
14210;DHT22;7188;56.070;12.698;2023-05-02T06:41:58;8.20;5.50
14210;DHT22;7188;56.070;12.698;2023-05-02T06:44:24;8.20;4.30
14210;DHT22;7188;56.070;12.698;2023-05-02T06:46:50;8.10;6.90
14210;DHT22;7188;56.070;12.698;2023-05-02T06:49:16;8.20;20.20
14210;DHT22;7188;56.070;12.698;2023-05-02T06:51:42;8.30;43.60
14210;DHT22;7188;56.070;12.698;2023-05-02T06:54:08;8.50;17.30
14210;DHT22;7188;56.070;12.698;2023-05-02T06:56:34;8.70;1.00
14210;DHT22;7188;56.070;12.698;2023-05-02T06:59:00;8.70;1.00
14210;DHT22;7188;56.070;12.698;2023-05-02T07:01:26;8.70;1.00
14210;DHT22;7188;56.070;12.698;2023-05-02T07:03:51;8.70;1.00
14210;DHT22;7188;56.070;12.698;2023-05-02T07:06:17;8.60;1.00
14210;DHT22;7188;56.070;12.698;2023-05-02T07:08:43;8.50;1.00
14210;DHT22;7188;56.070;12.698;2023-05-02T07:11:09;8.50;1.00
14210;DHT22;7188;56.070;12.698;2023-05-02T07:13:34;8.50;1.00
14210;DHT22;7188;56.070;12.698;2023-05-02T07:16:06;8.50;1.00
14210;DHT22;7188;56.070;12.698;2023-05-02T07:18:32;8.60;1.00
14210;DHT22;7188;56.070;12.698;2023-05-02T07:20:57;8.60;1.00
14210;DHT22;7188;56.070;12.698;2023-05-02T07:23:23;8.70;1.00
14210;DHT22;7188;56.070;12.698;2023-05-02T07:25:49;8.80;1.00
14210;DHT22;7188;56.070;12.698;2023-05-02T07:28:15;8.80;1.00
14210;DHT22;7188;56.070;12.698;2023-05-02T07:30:41;8.90;1.00
14210;DHT22;7188;56.070;12.698;2023-05-02T07:33:06;8.90;1.00
14210;DHT22;7188;56.070;12.698;2023-05-02T07:35:32;8.90;1.00
14210;DHT22;7188;56.070;12.698;2023-05-02T07:37:58;9.00;1.00
14210;DHT22;7188;56.070;12.698;2023-05-02T07:40:23;9.10;1.00
14210;DHT22;7188;56.070;12.698;2023-05-02T07:42:49;9.10;1.00
14210;DHT22;7188;56.070;12.698;2023-05-02T07:45:15;9.20;1.00
14210;DHT22;7188;56.070;12.698;2023-05-02T07:47:41;9.60;1.00
14210;DHT22;7188;56.070;12.698;2023-05-02T07:50:07;9.70;1.00
14210;DHT22;7188;56.070;12.698;2023-05-02T07:52:33;9.80;1.00
14210;DHT22;7188;56.070;12.698;2023-05-02T07:54:59;9.70;1.00
14210;DHT22;7188;56.070;12.698;2023-05-02T07:57:25;9.60;1.00
14210;DHT22;7188;56.070;12.698;2023-05-02T07:59:51;9.70;1.00
14210;DHT22;7188;56.070;12.698;2023-05-02T08:02:16;9.90;1.00
14210;DHT22;7188;56.070;12.698;2023-05-02T08:04:45;10.00;1.00
14210;DHT22;7188;56.070;12.698;2023-05-02T08:07:11;9.80;1.00
14210;DHT22;7188;56.070;12.698;2023-05-02T08:09:38;9.80;1.00
14210;DHT22;7188;56.070;12.698;2023-05-02T08:12:03;10.00;1.00
14210;DHT22;7188;56.070;12.698;2023-05-02T08:14:30;9.90;1.00
14210;DHT22;7188;56.070;12.698;2023-05-02T08:16:56;9.80;1.00
14210;DHT22;7188;56.070;12.698;2023-05-02T08:19:22;9.70;1.00
14210;DHT22;7188;56.070;12.698;2023-05-02T08:22:06;9.70;1.00
14210;DHT22;7188;56.070;12.698;2023-05-02T08:24:32;9.50;1.00
14210;DHT22;7188;56.070;12.698;2023-05-02T08:26:57;9.40;1.00
14210;DHT22;7188;56.070;12.698;2023-05-02T08:29:23;9.40;1.00
14210;DHT22;7188;56.070;12.698;2023-05-02T08:31:49;9.60;1.00
14210;DHT22;7188;56.070;12.698;2023-05-02T08:34:14;9.60;1.00
14210;DHT22;7188;56.070;12.698;2023-05-02T08:36:40;9.60;1.00
14210;DHT22;7188;56.070;12.698;2023-05-02T08:39:06;9.40;1.00
14210;DHT22;7188;56.070;12.698;2023-05-02T08:41:35;9.30;1.00
14210;DHT22;7188;56.070;12.698;2023-05-02T08:44:01;9.40;1.00
14210;DHT22;7188;56.070;12.698;2023-05-02T08:46:27;9.50;1.00
14210;DHT22;7188;56.070;12.698;2023-05-02T08:48:54;9.60;1.00
14210;DHT22;7188;56.070;12.698;2023-05-02T08:51:23;9.70;1.00
14210;DHT22;7188;56.070;12.698;2023-05-02T08:53:51;9.80;1.00
14210;DHT22;7188;56.070;12.698;2023-05-02T08:56:16;10.00;1.00
14210;DHT22;7188;56.070;12.698;2023-05-02T08:58:42;10.10;1.00
14210;DHT22;7188;56.070;12.698;2023-05-02T09:01:29;10.00;1.00
14210;DHT22;7188;56.070;12.698;2023-05-02T09:03:56;9.90;1.00
14210;DHT22;7188;56.070;12.698;2023-05-02T09:06:24;10.00;1.00
14210;DHT22;7188;56.070;12.698;2023-05-02T09:08:51;10.00;1.00
14210;DHT22;7188;56.070;12.698;2023-05-02T09:11:18;9.90;1.00
14210;DHT22;7188;56.070;12.698;2023-05-02T09:13:52;9.90;1.00
14210;DHT22;7188;56.070;12.698;2023-05-02T09:16:18;10.00;1.00
14210;DHT22;7188;56.070;12.698;2023-05-02T09:18:51;10.10;1.00
14210;DHT22;7188;56.070;12.698;2023-05-02T09:21:18;10.30;1.00
14210;DHT22;7188;56.070;12.698;2023-05-02T09:23:49;10.20;1.00
14210;DHT22;7188;56.070;12.698;2023-05-02T09:26:22;10.10;1.00
14210;DHT22;7188;56.070;12.698;2023-05-02T09:28:50;10.20;1.00
14210;DHT22;7188;56.070;12.698;2023-05-02T09:31:18;10.40;1.00
14210;DHT22;7188;56.070;12.698;2023-05-02T09:33:44;10.40;1.00
14210;DHT22;7188;56.070;12.698;2023-05-02T09:36:15;10.20;1.00
14210;DHT22;7188;56.070;12.698;2023-05-02T09:38:42;10.30;1.00
14210;DHT22;7188;56.070;12.698;2023-05-02T09:41:09;10.20;1.00
14210;DHT22;7188;56.070;12.698;2023-05-02T09:43:36;10.40;1.00
14210;DHT22;7188;56.070;12.698;2023-05-02T09:46:06;10.30;1.00
14210;DHT22;7188;56.070;12.698;2023-05-02T09:48:52;10.30;1.00
14210;DHT22;7188;56.070;12.698;2023-05-02T09:51:19;10.30;1.00
14210;DHT22;7188;56.070;12.698;2023-05-02T09:53:45;10.20;1.00
14210;DHT22;7188;56.070;12.698;2023-05-02T09:56:11;10.10;1.00
14210;DHT22;7188;56.070;12.698;2023-05-02T09:58:36;10.30;1.00
14210;DHT22;7188;56.070;12.698;2023-05-02T10:01:02;10.40;1.00
14210;DHT22;7188;56.070;12.698;2023-05-02T10:03:29;10.30;1.00
14210;DHT22;7188;56.070;12.698;2023-05-02T10:05:57;10.40;1.00
14210;DHT22;7188;56.070;12.698;2023-05-02T10:08:26;10.50;1.00
14210;DHT22;7188;56.070;12.698;2023-05-02T10:10:57;10.40;1.00
14210;DHT22;7188;56.070;12.698;2023-05-02T10:13:25;10.40;1.00
14210;DHT22;7188;56.070;12.698;2023-05-02T10:16:03;10.40;1.00
14210;DHT22;7188;56.070;12.698;2023-05-02T10:18:55;10.50;1.00
14210;DHT22;7188;56.070;12.698;2023-05-02T10:21:26;10.50;1.00
14210;DHT22;7188;56.070;12.698;2023-05-02T10:23:52;10.50;1.00
14210;DHT22;7188;56.070;12.698;2023-05-02T10:26:19;10.50;1.00
14210;DHT22;7188;56.070;12.698;2023-05-02T10:28:49;10.50;1.00
14210;DHT22;7188;56.070;12.698;2023-05-02T10:31:17;10.70;1.00
14210;DHT22;7188;56.070;12.698;2023-05-02T10:33:42;11.00;1.00
14210;DHT22;7188;56.070;12.698;2023-05-02T10:36:10;11.10;1.00
14210;DHT22;7188;56.070;12.698;2023-05-02T10:38:39;11.10;1.00
14210;DHT22;7188;56.070;12.698;2023-05-02T10:41:18;11.20;1.00
14210;DHT22;7188;56.070;12.698;2023-05-02T10:43:46;11.00;1.00
14210;DHT22;7188;56.070;12.698;2023-05-02T10:46:37;10.70;1.00
14210;DHT22;7188;56.070;12.698;2023-05-02T10:49:06;10.70;1.00
14210;DHT22;7188;56.070;12.698;2023-05-02T10:51:33;11.00;1.00
14210;DHT22;7188;56.070;12.698;2023-05-02T10:59:29;10.90;1.00
14210;DHT22;7188;56.070;12.698;2023-05-02T11:01:56;11.00;1.00
14210;DHT22;7188;56.070;12.698;2023-05-02T11:04:22;10.90;1.00
14210;DHT22;7188;56.070;12.698;2023-05-02T11:09:39;11.10;1.00
14210;DHT22;7188;56.070;12.698;2023-05-02T11:12:04;11.10;1.00
14210;DHT22;7188;56.070;12.698;2023-05-02T11:24:47;11.30;1.00
14210;DHT22;7188;56.070;12.698;2023-05-02T11:29:59;10.90;1.00
14210;DHT22;7188;56.070;12.698;2023-05-02T11:35:22;11.00;1.00
14210;DHT22;7188;56.070;12.698;2023-05-02T11:38:13;10.80;1.00
14210;DHT22;7188;56.070;12.698;2023-05-02T11:40:39;10.90;1.00
14210;DHT22;7188;56.070;12.698;2023-05-02T11:43:16;11.20;1.00
14210;DHT22;7188;56.070;12.698;2023-05-02T11:45:42;11.30;1.00
14210;DHT22;7188;56.070;12.698;2023-05-02T11:48:10;11.30;1.00
14210;DHT22;7188;56.070;12.698;2023-05-02T11:50:44;11.30;1.00
14210;DHT22;7188;56.070;12.698;2023-05-02T11:53:11;11.40;1.00
14210;DHT22;7188;56.070;12.698;2023-05-02T11:55:50;11.30;1.00
14210;DHT22;7188;56.070;12.698;2023-05-02T11:58:18;11.30;1.00
14210;DHT22;7188;56.070;12.698;2023-05-02T12:00:45;11.00;1.00
14210;DHT22;7188;56.070;12.698;2023-05-02T12:03:19;11.00;1.00
14210;DHT22;7188;56.070;12.698;2023-05-02T12:05:46;11.10;1.00
14210;DHT22;7188;56.070;12.698;2023-05-02T12:08:24;11.30;1.00
14210;DHT22;7188;56.070;12.698;2023-05-02T12:10:51;11.40;1.00
14210;DHT22;7188;56.070;12.698;2023-05-02T12:13:17;11.10;1.00
14210;DHT22;7188;56.070;12.698;2023-05-02T12:15:43;10.90;1.00
14210;DHT22;7188;56.070;12.698;2023-05-02T12:18:09;10.90;1.00
14210;DHT22;7188;56.070;12.698;2023-05-02T12:20:36;11.00;1.00
14210;DHT22;7188;56.070;12.698;2023-05-02T12:23:04;10.90;1.00
14210;DHT22;7188;56.070;12.698;2023-05-02T12:25:32;11.10;1.00
14210;DHT22;7188;56.070;12.698;2023-05-02T12:28:01;10.90;1.00
14210;DHT22;7188;56.070;12.698;2023-05-02T12:30:28;10.70;1.00
14210;DHT22;7188;56.070;12.698;2023-05-02T12:33:01;11.00;1.00
14210;DHT22;7188;56.070;12.698;2023-05-02T12:35:28;11.10;1.00
14210;DHT22;7188;56.070;12.698;2023-05-02T12:37:59;11.20;1.00
14210;DHT22;7188;56.070;12.698;2023-05-02T12:40:31;11.30;1.00
14210;DHT22;7188;56.070;12.698;2023-05-02T12:43:02;11.30;1.00
14210;DHT22;7188;56.070;12.698;2023-05-02T12:45:29;10.90;1.00
14210;DHT22;7188;56.070;12.698;2023-05-02T12:48:18;11.00;1.00
14210;DHT22;7188;56.070;12.698;2023-05-02T12:50:44;11.20;1.00
14210;DHT22;7188;56.070;12.698;2023-05-02T12:53:11;11.50;1.00
14210;DHT22;7188;56.070;12.698;2023-05-02T12:55:36;11.30;1.00
14210;DHT22;7188;56.070;12.698;2023-05-02T12:58:07;11.30;1.00
14210;DHT22;7188;56.070;12.698;2023-05-02T13:00:36;11.10;1.00
14210;DHT22;7188;56.070;12.698;2023-05-02T13:03:02;11.20;1.00
14210;DHT22;7188;56.070;12.698;2023-05-02T13:05:28;11.50;1.00
14210;DHT22;7188;56.070;12.698;2023-05-02T13:07:53;11.60;1.00
14210;DHT22;7188;56.070;12.698;2023-05-02T13:10:21;11.70;1.00
14210;DHT22;7188;56.070;12.698;2023-05-02T13:12:49;11.70;1.00
14210;DHT22;7188;56.070;12.698;2023-05-02T13:15:14;11.40;1.00
14210;DHT22;7188;56.070;12.698;2023-05-02T13:17:40;11.30;1.00
14210;DHT22;7188;56.070;12.698;2023-05-02T13:20:07;11.30;1.00
14210;DHT22;7188;56.070;12.698;2023-05-02T13:22:33;11.40;1.00
14210;DHT22;7188;56.070;12.698;2023-05-02T13:24:59;11.50;1.00
14210;DHT22;7188;56.070;12.698;2023-05-02T13:27:25;11.30;1.00
14210;DHT22;7188;56.070;12.698;2023-05-02T13:29:51;11.00;1.00
14210;DHT22;7188;56.070;12.698;2023-05-02T13:32:17;10.90;1.00
14210;DHT22;7188;56.070;12.698;2023-05-02T13:34:43;10.90;1.00
14210;DHT22;7188;56.070;12.698;2023-05-02T13:37:09;10.90;1.00
14210;DHT22;7188;56.070;12.698;2023-05-02T13:39:35;10.70;1.00
14210;DHT22;7188;56.070;12.698;2023-05-02T13:42:01;10.60;1.00
14210;DHT22;7188;56.070;12.698;2023-05-02T13:44:30;10.40;1.00
14210;DHT22;7188;56.070;12.698;2023-05-02T13:46:56;10.50;1.00
14210;DHT22;7188;56.070;12.698;2023-05-02T13:49:22;10.80;1.00
14210;DHT22;7188;56.070;12.698;2023-05-02T13:51:48;10.70;1.00
14210;DHT22;7188;56.070;12.698;2023-05-02T13:54:14;10.80;1.00
14210;DHT22;7188;56.070;12.698;2023-05-02T13:56:40;10.70;1.00
14210;DHT22;7188;56.070;12.698;2023-05-02T13:59:06;10.90;1.00
14210;DHT22;7188;56.070;12.698;2023-05-02T14:01:32;10.80;1.00
14210;DHT22;7188;56.070;12.698;2023-05-02T14:03:57;10.70;1.00
14210;DHT22;7188;56.070;12.698;2023-05-02T14:06:23;10.40;1.00
14210;DHT22;7188;56.070;12.698;2023-05-02T14:08:49;10.60;1.00
14210;DHT22;7188;56.070;12.698;2023-05-02T14:11:17;10.40;1.00
14210;DHT22;7188;56.070;12.698;2023-05-02T14:13:43;10.40;1.00
14210;DHT22;7188;56.070;12.698;2023-05-02T14:16:09;10.30;1.00
14210;DHT22;7188;56.070;12.698;2023-05-02T14:18:35;10.40;1.00
14210;DHT22;7188;56.070;12.698;2023-05-02T14:21:01;10.40;1.00
14210;DHT22;7188;56.070;12.698;2023-05-02T14:23:28;10.40;1.00
14210;DHT22;7188;56.070;12.698;2023-05-02T14:25:54;10.40;1.00
14210;DHT22;7188;56.070;12.698;2023-05-02T14:28:20;10.60;1.00
14210;DHT22;7188;56.070;12.698;2023-05-02T14:30:49;10.80;1.00
14210;DHT22;7188;56.070;12.698;2023-05-02T14:33:15;10.90;1.00
14210;DHT22;7188;56.070;12.698;2023-05-02T14:35:41;11.00;1.00
14210;DHT22;7188;56.070;12.698;2023-05-02T14:38:07;10.70;1.00
14210;DHT22;7188;56.070;12.698;2023-05-02T14:40:32;10.60;1.00
14210;DHT22;7188;56.070;12.698;2023-05-02T14:42:58;10.70;1.00
14210;DHT22;7188;56.070;12.698;2023-05-02T14:45:24;10.70;1.00
14210;DHT22;7188;56.070;12.698;2023-05-02T14:47:49;10.70;1.00
14210;DHT22;7188;56.070;12.698;2023-05-02T14:50:16;10.60;1.00
14210;DHT22;7188;56.070;12.698;2023-05-02T14:52:41;10.60;1.00
14210;DHT22;7188;56.070;12.698;2023-05-02T14:55:07;10.60;1.00
14210;DHT22;7188;56.070;12.698;2023-05-02T14:57:33;10.70;1.00
14210;DHT22;7188;56.070;12.698;2023-05-02T14:59:59;10.70;1.00
14210;DHT22;7188;56.070;12.698;2023-05-02T15:02:25;10.80;1.00
14210;DHT22;7188;56.070;12.698;2023-05-02T15:04:51;10.60;1.00
14210;DHT22;7188;56.070;12.698;2023-05-02T15:07:16;10.70;1.00
14210;DHT22;7188;56.070;12.698;2023-05-02T15:09:42;10.90;1.00
14210;DHT22;7188;56.070;12.698;2023-05-02T15:12:08;11.10;1.00
14210;DHT22;7188;56.070;12.698;2023-05-02T15:14:33;11.10;1.00
14210;DHT22;7188;56.070;12.698;2023-05-02T15:16:59;11.00;1.00
14210;DHT22;7188;56.070;12.698;2023-05-02T15:19:25;11.00;1.00
14210;DHT22;7188;56.070;12.698;2023-05-02T15:21:50;11.00;1.00
14210;DHT22;7188;56.070;12.698;2023-05-02T15:24:21;11.00;1.00
14210;DHT22;7188;56.070;12.698;2023-05-02T15:26:49;10.90;1.00
14210;DHT22;7188;56.070;12.698;2023-05-02T15:29:15;11.00;1.00
14210;DHT22;7188;56.070;12.698;2023-05-02T15:31:40;11.00;1.00
14210;DHT22;7188;56.070;12.698;2023-05-02T15:34:06;10.90;1.00
14210;DHT22;7188;56.070;12.698;2023-05-02T15:36:31;10.80;1.00
14210;DHT22;7188;56.070;12.698;2023-05-02T15:39:00;10.70;1.00
14210;DHT22;7188;56.070;12.698;2023-05-02T15:41:25;10.80;1.00
14210;DHT22;7188;56.070;12.698;2023-05-02T15:43:51;10.90;1.00
14210;DHT22;7188;56.070;12.698;2023-05-02T15:46:17;10.80;1.00
14210;DHT22;7188;56.070;12.698;2023-05-02T15:48:43;10.70;1.00
14210;DHT22;7188;56.070;12.698;2023-05-02T15:51:09;10.50;1.00
14210;DHT22;7188;56.070;12.698;2023-05-02T15:53:35;10.60;1.00
14210;DHT22;7188;56.070;12.698;2023-05-02T15:56:10;10.50;1.00
14210;DHT22;7188;56.070;12.698;2023-05-02T15:58:36;10.60;1.00
14210;DHT22;7188;56.070;12.698;2023-05-02T16:01:01;10.40;1.00
14210;DHT22;7188;56.070;12.698;2023-05-02T16:03:27;10.30;1.00
14210;DHT22;7188;56.070;12.698;2023-05-02T16:05:53;10.20;1.00
14210;DHT22;7188;56.070;12.698;2023-05-02T16:08:19;10.10;1.00
14210;DHT22;7188;56.070;12.698;2023-05-02T16:10:45;10.00;1.00
14210;DHT22;7188;56.070;12.698;2023-05-02T16:13:11;10.00;1.00
14210;DHT22;7188;56.070;12.698;2023-05-02T16:15:37;9.90;1.00
14210;DHT22;7188;56.070;12.698;2023-05-02T16:18:03;10.00;1.00
14210;DHT22;7188;56.070;12.698;2023-05-02T16:20:29;10.10;1.00
14210;DHT22;7188;56.070;12.698;2023-05-02T16:22:56;10.10;1.00
14210;DHT22;7188;56.070;12.698;2023-05-02T16:25:22;10.20;1.00
14210;DHT22;7188;56.070;12.698;2023-05-02T16:27:48;10.20;1.00